Dallas Love Field
KDAL : rendu visible

Aérodrome :











RETROUVEZ-NOUS SUR...

 
LOGIN :

S'inscrire | Disclaimer

   EN    FR    IT 

 









Légende :    VFR   VFR Marginal   IFR   IFR Intensif   IFR Très Intensif
Visi : 
Plafond : 
>= 8 km
>= 3000ft
5 à 8 km
1000 à 3000 ft
1500m à 5 km
500 à 1000 ft
800 à 1500m
200 à 500 ft
< 800m
< 200 ft
Symboles :   Orages  Brouillard  Fortes neiges  Fortes précipitations  Vent > 20 kt






- Altitude de l'aérodrome : 487 ft
- Code IATA : DAL


KDAL - Dallas Love Field

DERNIER METAR :
  • 182224Z 06010KT 10SM FEW030 FEW050 SCT110 SCT250 32/21 A2998 RMK AO2 CB DSNT NE MOV SW TCU DSNT ALQDS T03220206

METARs EXPIRÉS :
  • 182153Z 07008G27KT 10SM FEW030 SCT050 SCT110 SCT250 32/21 A2999 RMK AO2 PK WND 06027/2151 SLP148 CB DSNT NE MOV SW TCU DSNT ALQDS T03220211
  • 182053Z 36007KT 340V050 10SM FEW025 SCT050TCU SCT110 BKN250 30/19 A3002 RMK AO2 SLP157 CB DSNT N-NE MOV SW TCU SE-S AND DSNT ALQDS T03000194 56014
  • 181953Z 36015G24KT 10SM FEW025 SCT050CB SCT120 SCT250 32/21 A3003 RMK AO2 SLP161 CB N-NE MOV SW TCU DSNT S-W-NW T03170211
  • 181853Z 33010G24KT 10SM SCT033TCU SCT055 SCT080 SCT130 BKN250 29/22 A3004 RMK AO2 SLP166 CB DSNT NE MOV SW TCU S T02940217
  • 181753Z 00000KT 10SM BKN038CB BKN050 BKN080 BKN130 31/21 A3006 RMK AO2 SLP171 CB NW DRFTG S TCU NE S T03060211 10317 20250 58006

TAF KDAL
Valide du 18 à 21h jusqu'au 19 à 18h UTC


182106Z 1821/1918 01013KT P6SM VCTS BKN050CB
FM182200 03009KT P6SM SCT050 SCT250
FIR KZFW / Amérique du Nord



MET'MAP, la Météo Aéronautique d'un coup d'oeil ! - Copyright ORBIFLY Décembre 2007 - Disclaimer

ORBIFLY MET'MAP TEAM :

Programmation & Développement : Alexandra Zaïnal
Sur une idée originale de : Baudouin d'Aumeries
Soutien technique & logistique : Manuel Goepfert
Assistance : Marc-Olivier Méhu




SOURCES & CREDITS :

   NOAA       Earth
Advisory